Terminal Aerodrome Forecast
Issued by NWS Mobile, AL

Current Version | Previous Version | Text Only | Print | Product List | Glossary On
Versions: 1 2 3 4 5 6 7 8 9 10 11 12 13 14 15 16 17 18 19 20 21 22 23
000
FTUS44 KMOB 051128
TAFMOB
TAF
KMOB 051128Z 0512/0612 07006KT P6SM FEW070 SCT200
     FM051600 10012G18KT P6SM SCT050 SCT200
     FM060000 12004KT P6SM SCT070 SCT200=

USA.gov is the U.S. government's official web portal to all federal, state and local government web resources and services.